Terminal Aerodrome Forecast
Issued by NWS Austin/San Antonio, TX

Home | Current Version | Previous Version | Text Only | Print | Product List | Glossary On
Versions: 1 2 3 4 5 6 7 8 9 10 11 12 13 14 15 16 17 18 19 20 21
000
FTUS44 KEWX 152300
TAFDRT
TAF
KDRT 152340Z 1600/1624 14007KT P6SM BKN250
     FM160200 10006KT P6SM BKN150
     FM161100 08003KT P6SM BKN025
     FM161700 13007KT P6SM SCT035=

USA.gov is the U.S. government's official web portal to all federal, state and local government web resources and services.